Time;durP1;ratioP1;P1;durP2;ratioP2;P2;SDS_P1;SDS_P2;PMS_P1;PMS_P2;Temp;Humidity;BMP_temperature;BMP_pressure;BME280_temperature;BME280_humidity;BME280_pressure;Samples;Min_cycle;Max_cycle;Signal;HPM_P1;HPM_P2
2022/02/06 00:00:12;;;;;;;7.68;1.90;;;;;;;;;;509397;29;1349;-77
2022/02/06 00:00:30;;;;;;;7.72;2.00;;;;;;;;;;512428;28;841;-77
2022/02/06 00:00:48;;;;;;;8.27;2.03;;;;;;;;;;511203;29;1579;-78
2022/02/06 00:01:05;;;;;;;8.05;2.10;;;;;;;;;;511259;29;1249;-77
2022/02/06 00:01:20;;;;;;;7.38;2.17;;;;;;;;;;509372;29;1281;-77
2022/02/06 00:01:36;;;;;;;7.07;2.00;;;;;;;;;;508613;29;751;-78
2022/02/06 00:01:52;;;;;;;7.90;2.08;;;;;;;;;;508869;29;1382;-78
2022/02/06 00:02:07;;;;;;;7.27;1.90;;;;;;;;;;510616;29;754;-78
2022/02/06 00:02:27;;;;;;;6.32;1.83;;;;;;;;;;508555;29;1285;-78
2022/02/06 00:02:46;;;;;;;6.85;2.10;;;;;;;;;;510344;29;765;-78
2022/02/06 00:03:02;;;;;;;7.75;2.10;;;;;;;;;;512432;28;809;-78
2022/02/06 00:03:18;;;;;;;7.82;2.15;;;;;;;;;;513604;28;789;-78
2022/02/06 00:03:33;;;;;;;7.63;2.10;;;;;;;;;;510903;29;1225;-78
2022/02/06 00:03:48;;;;;;;7.17;2.10;;;;;;;;;;510634;29;1244;-77
2022/02/06 00:04:04;;;;;;;6.20;2.03;;;;;;;;;;511544;29;1464;-78
2022/02/06 00:04:19;;;;;;;7.53;2.10;;;;;;;;;;512518;28;1004;-78
2022/02/06 00:04:35;;;;;;;7.27;1.93;;;;;;;;;;511272;29;1177;-78
2022/02/06 00:04:51;;;;;;;5.53;1.80;;;;;;;;;;511722;29;801;-77
2022/02/06 00:05:06;;;;;;;7.37;1.97;;;;;;;;;;509653;29;1254;-78
2022/02/06 00:05:22;;;;;;;7.10;1.80;;;;;;;;;;512478;28;1174;-78
2022/02/06 00:05:37;;;;;;;7.38;1.77;;;;;;;;;;511447;29;1154;-78
2022/02/06 00:05:53;;;;;;;8.40;1.90;;;;;;;;;;511637;29;586;-78
2022/02/06 00:06:08;;;;;;;7.23;1.97;;;;;;;;;;511867;29;944;-78
2022/02/06 00:06:23;;;;;;;6.50;1.77;;;;;;;;;;512245;28;785;-78
2022/02/06 00:06:38;;;;;;;6.10;1.60;;;;;;;;;;513830;28;1156;-78
2022/02/06 00:06:54;;;;;;;5.70;1.73;;;;;;;;;;513842;28;907;-78
2022/02/06 00:07:10;;;;;;;6.57;1.80;;;;;;;;;;511997;28;1271;-78
2022/02/06 00:07:25;;;;;;;8.00;1.90;;;;;;;;;;513931;28;717;-78
2022/02/06 00:07:40;;;;;;;8.00;1.90;;;;;;;;;;513632;28;784;-77
2022/02/06 00:07:57;;;;;;;6.47;1.90;;;;;;;;;;513390;28;722;-78
2022/02/06 00:08:12;;;;;;;6.18;1.88;;;;;;;;;;511803;29;1350;-78
2022/02/06 00:08:27;;;;;;;7.33;1.93;;;;;;;;;;512269;28;793;-78
2022/02/06 00:08:43;;;;;;;9.27;2.13;;;;;;;;;;511927;29;1268;-78
2022/02/06 00:08:58;;;;;;;8.27;2.10;;;;;;;;;;512333;28;912;-78
2022/02/06 00:09:13;;;;;;;6.40;1.90;;;;;;;;;;511923;29;1965;-78
2022/02/06 00:09:29;;;;;;;6.47;2.00;;;;;;;;;;512039;29;1165;-78
2022/02/06 00:09:46;;;;;;;6.70;2.03;;;;;;;;;;511973;29;990;-78
2022/02/06 00:10:01;;;;;;;6.05;1.90;;;;;;;;;;509784;29;1272;-78
2022/02/06 00:10:18;;;;;;;6.30;2.00;;;;;;;;;;509962;29;1423;-78
2022/02/06 00:10:33;;;;;;;5.63;1.83;;;;;;;;;;510596;29;1252;-78
2022/02/06 00:10:48;;;;;;;7.13;1.87;;;;;;;;;;511908;29;1179;-78
2022/02/06 00:11:05;;;;;;;9.23;2.00;;;;;;;;;;512699;28;804;-78
2022/02/06 00:11:20;;;;;;;7.97;2.00;;;;;;;;;;514171;28;883;-77
2022/02/06 00:11:35;;;;;;;6.40;1.97;;;;;;;;;;514275;28;765;-78
2022/02/06 00:11:51;;;;;;;5.70;1.80;;;;;;;;;;513766;28;1029;-78
2022/02/06 00:12:06;;;;;;;7.10;2.00;;;;;;;;;;513916;28;750;-77
2022/02/06 00:12:22;;;;;;;8.88;2.20;;;;;;;;;;512131;28;1428;-78
2022/02/06 00:12:37;;;;;;;7.63;2.00;;;;;;;;;;512248;28;1256;-80
2022/02/06 00:12:52;;;;;;;8.40;2.00;;;;;;;;;;513893;28;765;-81
2022/02/06 00:13:08;;;;;;;7.73;1.90;;;;;;;;;;511946;29;1253;-81
2022/02/06 00:13:23;;;;;;;7.65;1.98;;;;;;;;;;512080;29;948;-80
2022/02/06 00:13:38;;;;;;;8.77;2.13;;;;;;;;;;512104;29;800;-80
2022/02/06 00:13:55;;;;;;;7.33;2.10;;;;;;;;;;511761;29;1185;-79
2022/02/06 00:14:10;;;;;;;6.25;1.90;;;;;;;;;;511945;28;781;-78
2022/02/06 00:14:26;;;;;;;5.85;2.00;;;;;;;;;;512204;28;1186;-78
2022/02/06 00:14:41;;;;;;;5.77;2.07;;;;;;;;;;513518;28;1094;-79
2022/02/06 00:14:57;;;;;;;6.53;2.07;;;;;;;;;;510837;28;1035;-78
2022/02/06 00:15:13;;;;;;;7.10;2.05;;;;;;;;;;510534;28;1489;-78
2022/02/06 00:15:28;;;;;;;7.43;2.07;;;;;;;;;;512814;28;987;-78
2022/02/06 00:15:43;;;;;;;7.47;1.97;;;;;;;;;;508193;29;1556;-78
2022/02/06 00:15:59;;;;;;;6.05;1.92;;;;;;;;;;511625;29;841;-78
2022/02/06 00:16:14;;;;;;;6.72;2.20;;;;;;;;;;509938;29;1153;-78
2022/02/06 00:16:30;;;;;;;6.80;1.90;;;;;;;;;;509958;29;1173;-78
2022/02/06 00:16:46;;;;;;;6.03;1.90;;;;;;;;;;510085;29;809;-77
2022/02/06 00:17:01;;;;;;;6.40;2.10;;;;;;;;;;510198;29;774;-78
2022/02/06 00:17:17;;;;;;;7.20;2.05;;;;;;;;;;509680;29;1233;-79
2022/02/06 00:17:32;;;;;;;7.80;2.07;;;;;;;;;;510155;29;1170;-78
2022/02/06 00:17:49;;;;;;;8.60;2.28;;;;;;;;;;511908;29;1295;-78
2022/02/06 00:18:04;;;;;;;9.52;2.35;;;;;;;;;;512157;28;939;-78
2022/02/06 00:18:19;;;;;;;9.63;2.13;;;;;;;;;;514594;28;750;-78
2022/02/06 00:18:35;;;;;;;8.60;2.07;;;;;;;;;;512752;28;1343;-78
2022/02/06 00:18:50;;;;;;;8.23;2.17;;;;;;;;;;509908;29;1267;-77
2022/02/06 00:19:05;;;;;;;7.00;1.95;;;;;;;;;;508525;29;1185;-78
2022/02/06 00:19:21;;;;;;;6.93;2.00;;;;;;;;;;507961;29;1222;-78
2022/02/06 00:19:39;;;;;;;7.73;2.20;;;;;;;;;;508042;29;1253;-78
2022/02/06 00:19:55;;;;;;;7.63;2.13;;;;;;;;;;510045;29;889;-78
2022/02/06 00:20:10;;;;;;;6.20;1.93;;;;;;;;;;508704;29;789;-78
2022/02/06 00:20:32;;;;;;;6.18;2.03;;;;;;;;;;507861;29;1178;-77
2022/02/06 00:20:54;;;;;;;7.88;2.20;;;;;;;;;;509684;29;834;-78
2022/02/06 00:21:14;;;;;;;6.90;1.88;;;;;;;;;;508352;29;1341;-78
2022/02/06 00:21:34;;;;;;;7.32;2.00;;;;;;;;;;511033;29;766;-79
2022/02/06 00:21:49;;;;;;;8.10;1.95;;;;;;;;;;511974;28;888;-78
2022/02/06 00:22:07;;;;;;;6.90;1.80;;;;;;;;;;511792;29;686;-78
2022/02/06 00:22:40;;;;;;;6.88;2.00;;;;;;;;;;513266;28;852;-78
2022/02/06 00:22:59;;;;;;;7.45;1.95;;;;;;;;;;511998;28;1113;-78
2022/02/06 00:23:17;;;;;;;7.32;1.90;;;;;;;;;;514229;28;786;-79
2022/02/06 00:23:33;;;;;;;7.40;1.90;;;;;;;;;;515429;28;829;-79
2022/02/06 00:23:52;;;;;;;6.53;1.77;;;;;;;;;;516187;28;1385;-79
2022/02/06 00:24:13;;;;;;;7.25;1.92;;;;;;;;;;516106;28;828;-79
2022/02/06 00:24:42;;;;;;;7.68;1.92;;;;;;;;;;515782;28;895;-78
2022/02/06 00:25:58;;;;;;;;;;;;;;;;;;;;;
2022/02/06 00:26:29;;;;;;;7.25;1.92;;;;;;;;;;516078;28;969;-79
2022/02/06 00:26:54;;;;;;;5.97;1.75;;;;;;;;;;515522;28;1224;-79
2022/02/06 00:27:22;;;;;;;6.80;2.08;;;;;;;;;;515964;28;840;-79
2022/02/06 00:27:58;;;;;;;;;;;;;;;;;;;;;
2022/02/06 00:28:44;;;;;;;7.28;1.90;;;;;;;;;;513487;28;833;-78
2022/02/06 00:29:24;;;;;;;7.65;1.98;;;;;;;;;;512028;29;1484;-78
2022/02/06 00:29:53;;;;;;;7.00;1.80;;;;;;;;;;511610;29;1383;-78
2022/02/06 00:31:00;;;;;;;6.95;1.88;;;;;;;;;;513120;28;1372;-79
2022/02/06 00:31:51;;;;;;;7.55;2.15;;;;;;;;;;510997;28;1379;-78
2022/02/06 00:32:13;;;;;;;6.95;1.90;;;;;;;;;;513867;28;856;-78
2022/02/06 00:32:44;;;;;;;8.98;2.22;;;;;;;;;;514437;28;1352;-79
2022/02/06 00:33:08;;;;;;;7.35;1.88;;;;;;;;;;513831;28;872;-78
2022/02/06 00:35:14;;;;;;;7.70;2.10;;;;;;;;;;514065;28;916;-78
2022/02/06 00:39:05;;;;;;;7.35;1.90;;;;;;;;;;515740;28;922;-78
2022/02/06 00:39:21;;;;;;;6.30;1.98;;;;;;;;;;516093;28;883;-79
2022/02/06 00:39:36;;;;;;;6.67;1.90;;;;;;;;;;515929;28;1307;-79
2022/02/06 00:39:51;;;;;;;6.23;1.80;;;;;;;;;;515052;28;1115;-79
2022/02/06 00:40:07;;;;;;;6.07;1.90;;;;;;;;;;511532;29;1149;-79
2022/02/06 00:40:33;;;;;;;7.05;2.00;;;;;;;;;;512013;29;1019;-79
2022/02/06 00:41:25;;;;;;;7.28;1.85;;;;;;;;;;512117;29;997;-79
2022/02/06 00:41:41;;;;;;;6.50;1.90;;;;;;;;;;510371;29;1300;-79
2022/02/06 00:41:56;;;;;;;5.87;1.90;;;;;;;;;;512567;28;781;-80
2022/02/06 00:42:11;;;;;;;6.57;1.90;;;;;;;;;;512030;28;1344;-79
2022/02/06 00:42:27;;;;;;;6.30;1.85;;;;;;;;;;511855;28;1177;-79
2022/02/06 00:42:42;;;;;;;6.27;1.83;;;;;;;;;;511947;28;1205;-80
2022/02/06 00:42:57;;;;;;;7.03;2.00;;;;;;;;;;511982;29;749;-79
2022/02/06 00:43:12;;;;;;;6.43;1.95;;;;;;;;;;509146;29;1217;-78
2022/02/06 00:43:28;;;;;;;6.13;2.00;;;;;;;;;;510266;29;853;-79
2022/02/06 00:43:43;;;;;;;6.67;1.90;;;;;;;;;;510090;29;1171;-79
2022/02/06 00:44:02;;;;;;;6.80;1.85;;;;;;;;;;510131;29;761;-79
2022/02/06 00:44:18;;;;;;;6.22;1.90;;;;;;;;;;511813;29;822;-80
2022/02/06 00:44:33;;;;;;;7.90;2.00;;;;;;;;;;510355;29;1237;-79
2022/02/06 00:44:48;;;;;;;8.30;2.07;;;;;;;;;;509659;29;1177;-79
2022/02/06 00:45:04;;;;;;;7.95;2.00;;;;;;;;;;509525;29;1003;-80
2022/02/06 00:45:19;;;;;;;7.53;2.03;;;;;;;;;;507621;29;1135;-80
2022/02/06 00:45:34;;;;;;;6.20;1.90;;;;;;;;;;506940;29;1071;-80
2022/02/06 00:45:50;;;;;;;6.37;1.83;;;;;;;;;;509351;29;901;-79
2022/02/06 00:46:08;;;;;;;8.23;2.03;;;;;;;;;;507813;29;1317;-79
2022/02/06 00:46:23;;;;;;;8.93;2.10;;;;;;;;;;508256;29;849;-79
2022/02/06 00:46:40;;;;;;;7.28;1.95;;;;;;;;;;508467;29;1307;-79
2022/02/06 00:47:01;;;;;;;7.10;2.10;;;;;;;;;;507926;29;1443;-79
2022/02/06 00:47:16;;;;;;;8.18;2.10;;;;;;;;;;510668;28;818;-79
2022/02/06 00:47:32;;;;;;;7.23;2.00;;;;;;;;;;513893;28;750;-80
2022/02/06 00:47:47;;;;;;;6.63;2.00;;;;;;;;;;511765;29;1044;-79
2022/02/06 00:48:02;;;;;;;7.13;2.10;;;;;;;;;;511241;29;806;-79
2022/02/06 00:48:22;;;;;;;8.18;2.25;;;;;;;;;;509589;29;792;-80
2022/02/06 00:48:42;;;;;;;8.45;2.22;;;;;;;;;;511448;29;1344;-79
2022/02/06 00:48:58;;;;;;;8.07;1.90;;;;;;;;;;512847;28;865;-78
2022/02/06 00:49:24;;;;;;;6.85;1.70;;;;;;;;;;513737;28;1926;-79
2022/02/06 00:49:41;;;;;;;5.93;1.80;;;;;;;;;;513551;28;999;-79
2022/02/06 00:49:58;;;;;;;7.07;2.00;;;;;;;;;;513484;28;841;-79
2022/02/06 00:50:13;;;;;;;7.53;2.15;;;;;;;;;;513609;28;1241;-79
2022/02/06 00:50:29;;;;;;;7.17;1.90;;;;;;;;;;514386;28;1456;-79
2022/02/06 00:50:48;;;;;;;7.13;1.80;;;;;;;;;;516091;28;773;-79
2022/02/06 00:51:45;;;;;;;6.38;2.00;;;;;;;;;;515556;28;627;-79
2022/02/06 00:52:10;;;;;;;;;;;;;;;;;;;;;
2022/02/06 00:52:28;;;;;;;7.00;1.73;;;;;;;;;;514377;28;1081;-79
2022/02/06 00:52:53;;;;;;;7.65;1.92;;;;;;;;;;514069;28;849;-79
2022/02/06 00:53:15;;;;;;;7.15;2.03;;;;;;;;;;515267;28;872;-79
2022/02/06 00:53:31;;;;;;;8.43;2.10;;;;;;;;;;515871;28;879;-79
2022/02/06 00:53:46;;;;;;;7.32;2.08;;;;;;;;;;513636;28;1202;-78
2022/02/06 00:54:01;;;;;;;7.20;1.97;;;;;;;;;;513947;28;1123;-79
2022/02/06 00:54:16;;;;;;;7.73;1.90;;;;;;;;;;511894;29;1394;-78
2022/02/06 00:54:32;;;;;;;7.20;1.80;;;;;;;;;;512077;29;1305;-79
2022/02/06 00:54:47;;;;;;;7.33;1.80;;;;;;;;;;511689;29;841;-79
2022/02/06 00:55:03;;;;;;;7.80;1.80;;;;;;;;;;509477;29;1258;-79
2022/02/06 00:55:19;;;;;;;5.60;1.70;;;;;;;;;;507725;29;1335;-79
2022/02/06 00:55:34;;;;;;;6.03;1.83;;;;;;;;;;509711;29;1237;-78
2022/02/06 00:55:49;;;;;;;7.17;1.90;;;;;;;;;;509994;29;747;-79
2022/02/06 00:56:05;;;;;;;6.35;1.77;;;;;;;;;;512154;29;805;-79
2022/02/06 00:56:20;;;;;;;7.03;1.90;;;;;;;;;;508382;29;1134;-79
2022/02/06 00:56:39;;;;;;;8.40;2.10;;;;;;;;;;510177;29;986;-79
2022/02/06 00:56:54;;;;;;;7.75;2.00;;;;;;;;;;507961;29;877;-79
2022/02/06 00:57:10;;;;;;;6.57;1.83;;;;;;;;;;509741;29;770;-79
2022/02/06 00:57:27;;;;;;;7.17;1.80;;;;;;;;;;510187;29;1313;-79
2022/02/06 00:57:42;;;;;;;7.97;1.90;;;;;;;;;;511551;29;845;-79
2022/02/06 00:57:57;;;;;;;7.87;1.90;;;;;;;;;;511612;29;829;-79
2022/02/06 00:58:12;;;;;;;6.97;1.85;;;;;;;;;;511967;29;761;-78
2022/02/06 00:58:28;;;;;;;5.80;1.70;;;;;;;;;;511832;29;920;-78
2022/02/06 00:58:43;;;;;;;8.07;1.77;;;;;;;;;;512362;28;805;-79
2022/02/06 00:58:59;;;;;;;9.73;2.08;;;;;;;;;;514046;28;909;-80
2022/02/06 00:59:14;;;;;;;8.97;2.17;;;;;;;;;;512395;28;1242;-79
2022/02/06 00:59:30;;;;;;;8.00;2.15;;;;;;;;;;513773;28;828;-79
2022/02/06 00:59:45;;;;;;;5.87;2.00;;;;;;;;;;513667;28;1242;-78
2022/02/06 01:00:01;;;;;;;6.15;1.90;;;;;;;;;;511517;29;1162;-79
2022/02/06 01:00:16;;;;;;;6.77;1.87;;;;;;;;;;511758;29;770;-79
2022/02/06 01:00:31;;;;;;;6.82;1.80;;;;;;;;;;513546;28;1371;-78
2022/02/06 01:00:48;;;;;;;7.97;1.90;;;;;;;;;;511774;29;1193;-78
2022/02/06 01:01:04;;;;;;;9.38;2.00;;;;;;;;;;512104;29;871;-78
2022/02/06 01:01:20;;;;;;;9.23;2.03;;;;;;;;;;511460;29;1205;-79
2022/02/06 01:01:37;;;;;;;7.00;1.97;;;;;;;;;;512516;28;1467;-79
2022/02/06 01:01:53;;;;;;;7.93;2.00;;;;;;;;;;513721;28;1490;-79
2022/02/06 01:02:09;;;;;;;8.23;2.00;;;;;;;;;;513784;28;927;-78
2022/02/06 01:02:24;;;;;;;7.00;1.90;;;;;;;;;;512652;28;1042;-79
2022/02/06 01:02:39;;;;;;;6.63;1.95;;;;;;;;;;512907;28;1155;-79
2022/02/06 01:02:55;;;;;;;7.30;2.00;;;;;;;;;;513746;28;968;-79
2022/02/06 01:03:10;;;;;;;8.70;2.10;;;;;;;;;;511738;29;1148;-78
2022/02/06 01:03:25;;;;;;;7.33;2.00;;;;;;;;;;511825;29;1223;-78
2022/02/06 01:03:41;;;;;;;5.80;1.80;;;;;;;;;;509082;29;1154;-78
2022/02/06 01:03:56;;;;;;;6.07;1.77;;;;;;;;;;507559;29;1284;-78
2022/02/06 01:04:13;;;;;;;6.57;1.80;;;;;;;;;;508010;29;793;-78
2022/02/06 01:04:34;;;;;;;7.40;2.00;;;;;;;;;;508606;29;889;-78
2022/02/06 01:04:50;;;;;;;8.63;2.00;;;;;;;;;;511818;29;814;-79
2022/02/06 01:05:05;;;;;;;7.03;1.90;;;;;;;;;;509337;29;1225;-79
2022/02/06 01:05:21;;;;;;;6.83;1.90;;;;;;;;;;511006;29;912;-78
2022/02/06 01:05:36;;;;;;;7.30;1.80;;;;;;;;;;511176;29;1175;-78
2022/02/06 01:05:51;;;;;;;8.07;1.90;;;;;;;;;;512881;28;1147;-78
2022/02/06 01:06:07;;;;;;;7.23;1.80;;;;;;;;;;513581;28;904;-79
2022/02/06 01:06:22;;;;;;;6.88;1.80;;;;;;;;;;513724;28;857;-79
2022/02/06 01:06:37;;;;;;;7.70;1.93;;;;;;;;;;514153;28;816;-80
2022/02/06 01:06:53;;;;;;;7.68;1.95;;;;;;;;;;513668;28;1177;-80
2022/02/06 01:07:08;;;;;;;6.00;1.60;;;;;;;;;;514135;28;912;-79
2022/02/06 01:07:23;;;;;;;6.80;1.60;;;;;;;;;;514287;28;765;-78
2022/02/06 01:07:39;;;;;;;7.40;1.80;;;;;;;;;;513991;28;1194;-78
2022/02/06 01:07:55;;;;;;;6.78;1.88;;;;;;;;;;513020;28;900;-79
2022/02/06 01:08:10;;;;;;;7.32;1.98;;;;;;;;;;513348;28;816;-79
2022/02/06 01:08:25;;;;;;;6.67;1.80;;;;;;;;;;513948;28;773;-79
2022/02/06 01:08:41;;;;;;;6.07;1.70;;;;;;;;;;512061;28;1149;-79
2022/02/06 01:08:57;;;;;;;6.90;1.88;;;;;;;;;;513786;28;800;-79
2022/02/06 01:09:12;;;;;;;7.87;2.10;;;;;;;;;;511574;28;1906;-79
2022/02/06 01:09:27;;;;;;;9.87;2.13;;;;;;;;;;510793;29;785;-79
2022/02/06 01:09:43;;;;;;;8.38;1.90;;;;;;;;;;511781;29;1186;-80
2022/02/06 01:09:58;;;;;;;6.20;1.80;;;;;;;;;;511418;29;947;-79
2022/02/06 01:10:14;;;;;;;8.33;1.90;;;;;;;;;;511832;28;729;-79
2022/02/06 01:10:29;;;;;;;9.55;1.80;;;;;;;;;;514235;28;626;-79
2022/02/06 01:10:44;;;;;;;9.20;1.90;;;;;;;;;;516127;28;738;-80
2022/02/06 01:11:04;;;;;;;8.02;2.00;;;;;;;;;;513817;28;1360;-79
2022/02/06 01:11:20;;;;;;;6.22;1.70;;;;;;;;;;514077;28;1000;-79
2022/02/06 01:11:37;;;;;;;6.85;1.85;;;;;;;;;;512748;28;1228;-79
2022/02/06 01:11:53;;;;;;;7.70;1.85;;;;;;;;;;511889;29;1273;-78
2022/02/06 01:12:09;;;;;;;6.80;1.80;;;;;;;;;;512027;29;814;-79
2022/02/06 01:12:28;;;;;;;7.20;1.93;;;;;;;;;;509440;29;1379;-79
2022/02/06 01:12:49;;;;;;;8.00;1.80;;;;;;;;;;507921;29;1387;-79
2022/02/06 01:14:30;;;;;;;7.05;1.92;;;;;;;;;;508050;29;687;-78
2022/02/06 01:15:22;;;;;;;6.32;1.80;;;;;;;;;;515474;28;859;-78
2022/02/06 01:15:37;;;;;;;8.40;2.22;;;;;;;;;;515515;28;892;-79
2022/02/06 01:16:01;;;;;;;7.80;2.10;;;;;;;;;;515639;28;801;-79
2022/02/06 01:16:22;;;;;;;7.43;1.92;;;;;;;;;;513443;28;1307;-79
2022/02/06 01:16:43;;;;;;;6.75;1.85;;;;;;;;;;513693;28;892;-79
2022/02/06 01:17:27;;;;;;;6.97;1.90;;;;;;;;;;513762;28;1229;-78
2022/02/06 01:17:49;;;;;;;8.18;2.05;;;;;;;;;;513730;28;832;-79
2022/02/06 01:18:09;;;;;;;7.57;2.00;;;;;;;;;;513977;28;777;-79
2022/02/06 01:18:31;;;;;;;6.93;1.88;;;;;;;;;;515068;28;1355;-79
2022/02/06 01:19:03;;;;;;;7.10;1.75;;;;;;;;;;515506;28;1221;-79
2022/02/06 01:19:24;;;;;;;7.75;1.95;;;;;;;;;;514627;28;1273;-79
2022/02/06 01:19:51;;;;;;;6.55;1.90;;;;;;;;;;515902;28;1741;-79
2022/02/06 01:20:24;;;;;;;5.95;1.85;;;;;;;;;;515374;28;798;-79
2022/02/06 01:20:45;;;;;;;6.82;2.00;;;;;;;;;;513615;28;1649;-79
2022/02/06 01:21:07;;;;;;;6.63;1.92;;;;;;;;;;511877;29;1320;-79
2022/02/06 01:22:02;;;;;;;6.13;1.90;;;;;;;;;;513789;28;955;-79
2022/02/06 01:22:21;;;;;;;6.80;2.00;;;;;;;;;;511687;29;1469;-78
2022/02/06 01:22:46;;;;;;;6.25;1.77;;;;;;;;;;511007;29;1217;-79
2022/02/06 01:23:21;;;;;;;8.38;2.20;;;;;;;;;;513525;28;1253;-79
2022/02/06 01:23:53;;;;;;;7.88;1.90;;;;;;;;;;513692;28;994;-78
2022/02/06 01:24:14;;;;;;;6.90;1.67;;;;;;;;;;512401;28;1394;-79
2022/02/06 01:24:52;;;;;;;7.97;1.92;;;;;;;;;;511455;29;1313;-79
2022/02/06 01:25:13;;;;;;;7.10;2.00;;;;;;;;;;511367;29;1297;-79
2022/02/06 01:25:34;;;;;;;6.88;1.90;;;;;;;;;;509914;29;1457;-78
2022/02/06 01:26:31;;;;;;;5.80;1.80;;;;;;;;;;509547;29;880;-78
2022/02/06 01:27:09;;;;;;;7.05;1.80;;;;;;;;;;513680;28;702;-79
2022/02/06 01:27:35;;;;;;;7.63;2.08;;;;;;;;;;515913;28;865;-78
2022/02/06 01:28:31;;;;;;;6.35;1.73;;;;;;;;;;515764;28;1089;-78
2022/02/06 01:28:47;;;;;;;5.80;1.75;;;;;;;;;;514688;28;1162;-79
2022/02/06 01:30:01;;;;;;;5.80;1.88;;;;;;;;;;515752;28;730;-78
2022/02/06 01:30:20;;;;;;;6.50;1.70;;;;;;;;;;515515;28;1403;-78
2022/02/06 01:30:52;;;;;;;5.95;1.60;;;;;;;;;;513291;28;1324;-78
2022/02/06 01:32:24;;;;;;;6.75;1.67;;;;;;;;;;507946;29;785;-78
2022/02/06 01:32:31;;;;;;;5.38;1.70;;;;;;;;;;510043;29;672;-78
2022/02/06 01:32:54;;;;;;;6.88;1.80;;;;;;;;;;513880;28;1267;-78
2022/02/06 01:33:18;;;;;;;5.82;1.70;;;;;;;;;;513520;28;1410;-79
2022/02/06 01:33:39;;;;;;;6.30;1.63;;;;;;;;;;514019;28;845;-78
2022/02/06 01:33:59;;;;;;;7.28;1.70;;;;;;;;;;513788;28;834;-78
2022/02/06 01:34:17;;;;;;;7.70;1.80;;;;;;;;;;513825;28;837;-78
2022/02/06 01:34:57;;;;;;;7.90;1.80;;;;;;;;;;513882;28;872;-78
2022/02/06 01:35:15;;;;;;;6.63;1.63;;;;;;;;;;513879;28;1263;-78
2022/02/06 01:35:39;;;;;;;5.97;1.70;;;;;;;;;;516013;28;1162;-78
2022/02/06 01:36:06;;;;;;;7.13;1.90;;;;;;;;;;515533;28;1355;-78
2022/02/06 01:36:43;;;;;;;7.43;1.93;;;;;;;;;;515994;28;582;-79
2022/02/06 01:37:15;;;;;;;7.97;1.92;;;;;;;;;;513849;28;1136;-79
2022/02/06 01:37:40;;;;;;;7.97;2.10;;;;;;;;;;511832;28;903;-78
2022/02/06 01:39:05;;;;;;;7.00;1.95;;;;;;;;;;513797;28;890;-78
2022/02/06 01:40:08;;;;;;;8.55;2.10;;;;;;;;;;515521;28;867;-78
2022/02/06 01:41:09;;;;;;;6.80;2.13;;;;;;;;;;516156;28;575;-78
2022/02/06 01:41:28;;;;;;;5.80;1.63;;;;;;;;;;513722;28;1075;-77
2022/02/06 01:41:47;;;;;;;8.07;1.80;;;;;;;;;;513801;28;1249;-77
2022/02/06 01:42:04;;;;;;;7.55;1.83;;;;;;;;;;513774;28;848;-77
2022/02/06 01:42:31;;;;;;;7.05;2.00;;;;;;;;;;513968;28;879;-78
2022/02/06 01:42:57;;;;;;;7.82;1.80;;;;;;;;;;513712;28;1280;-78
2022/02/06 01:43:17;;;;;;;6.65;1.90;;;;;;;;;;513843;28;1260;-77
2022/02/06 01:43:42;;;;;;;7.65;2.00;;;;;;;;;;513498;28;796;-78
2022/02/06 01:44:04;;;;;;;7.03;2.00;;;;;;;;;;513806;28;1320;-78
2022/02/06 01:44:36;;;;;;;6.55;1.80;;;;;;;;;;513771;28;1336;-77
2022/02/06 01:45:10;;;;;;;6.75;1.90;;;;;;;;;;512670;28;1386;-78
2022/02/06 01:45:39;;;;;;;5.68;1.80;;;;;;;;;;511899;29;813;-78
2022/02/06 01:46:39;;;;;;;;;;;;;;;;;;;;;
2022/02/06 01:46:55;;;;;;;6.87;1.70;;;;;;;;;;512248;28;943;-78
2022/02/06 02:00:59;;;;;;;6.05;1.90;;;;;;;;;;515938;28;666;-81
2022/02/06 02:01:25;;;;;;;8.40;2.00;;;;;;;;;;515741;28;907;-81
2022/02/06 02:01:54;;;;;;;6.22;2.00;;;;;;;;;;515910;28;891;-81
2022/02/06 02:03:09;;;;;;;6.53;1.90;;;;;;;;;;515929;28;844;-80
2022/02/06 02:08:10;;;;;;;7.63;1.95;;;;;;;;;;515944;28;678;-80
2022/02/06 02:13:48;;;;;;;8.32;2.00;;;;;;;;;;515963;28;816;-80
2022/02/06 02:15:07;;;;;;;8.40;1.88;;;;;;;;;;515635;28;762;-80
2022/02/06 02:18:39;;;;;;;6.90;1.70;;;;;;;;;;513969;28;836;-80
2022/02/06 02:23:06;;;;;;;9.50;2.00;;;;;;;;;;510568;28;1061;-80
2022/02/06 02:24:40;;;;;;;8.15;1.75;;;;;;;;;;514521;28;815;-80
2022/02/06 02:29:56;;;;;;;7.85;1.63;;;;;;;;;;516375;28;659;-80
2022/02/06 02:30:47;;;;;;;8.23;2.45;;;;;;;;;;516499;28;800;-80
2022/02/06 02:30:59;;;;;;;8.63;2.00;;;;;;;;;;508097;29;790;-80
2022/02/06 02:44:54;;;;;;;9.20;2.00;;;;;;;;;;516446;28;951;-80
2022/02/06 02:46:06;;;;;;;7.95;1.90;;;;;;;;;;514188;28;655;-80
2022/02/06 02:46:53;;;;;;;7.82;1.90;;;;;;;;;;514435;28;742;-80
2022/02/06 02:47:19;;;;;;;5.00;1.80;;;;;;;;;;512150;29;1397;-79
2022/02/06 02:47:35;;;;;;;6.88;1.95;;;;;;;;;;512045;29;1210;-80
2022/02/06 02:47:53;;;;;;;7.30;1.83;;;;;;;;;;512142;28;1157;-79
2022/02/06 02:48:09;;;;;;;8.10;1.90;;;;;;;;;;511857;28;935;-80
2022/02/06 02:48:24;;;;;;;7.80;1.83;;;;;;;;;;514154;28;719;-79
2022/02/06 02:48:43;;;;;;;8.02;1.88;;;;;;;;;;514041;28;820;-79
2022/02/06 02:49:00;;;;;;;7.47;1.80;;;;;;;;;;514657;28;837;-80
2022/02/06 02:49:19;;;;;;;7.75;1.90;;;;;;;;;;513974;28;1980;-80
2022/02/06 02:49:35;;;;;;;6.47;1.73;;;;;;;;;;514090;28;824;-80
2022/02/06 02:50:13;;;;;;;6.40;1.80;;;;;;;;;;515837;28;944;-80
2022/02/06 02:50:31;;;;;;;8.95;1.88;;;;;;;;;;516383;28;785;-80
2022/02/06 02:50:54;;;;;;;9.18;1.88;;;;;;;;;;514313;28;1331;-80
2022/02/06 02:51:11;;;;;;;7.72;1.80;;;;;;;;;;514293;28;1389;-80
2022/02/06 02:51:31;;;;;;;7.55;1.80;;;;;;;;;;514368;28;881;-80
2022/02/06 02:51:49;;;;;;;8.30;1.95;;;;;;;;;;514232;28;997;-80
2022/02/06 02:52:10;;;;;;;8.23;1.95;;;;;;;;;;514306;28;832;-80
2022/02/06 02:53:08;;;;;;;7.32;1.88;;;;;;;;;;515869;28;632;-80
2022/02/06 02:53:33;;;;;;;8.75;2.20;;;;;;;;;;515796;28;1264;-79
2022/02/06 02:53:56;;;;;;;6.65;1.70;;;;;;;;;;516179;28;909;-81
2022/02/06 02:54:17;;;;;;;6.95;1.85;;;;;;;;;;516258;28;809;-80
2022/02/06 02:54:34;;;;;;;6.43;1.90;;;;;;;;;;516233;28;813;-80
2022/02/06 02:54:54;;;;;;;6.35;1.88;;;;;;;;;;516196;28;789;-80
2022/02/06 02:57:01;;;;;;;8.73;1.88;;;;;;;;;;516158;28;824;-79
2022/02/06 02:57:27;;;;;;;9.77;2.00;;;;;;;;;;516322;28;872;-79
2022/02/06 02:57:49;;;;;;;7.95;1.90;;;;;;;;;;516266;28;769;-80
2022/02/06 02:59:23;;;;;;;7.35;1.90;;;;;;;;;;516441;28;845;-79
2022/02/06 03:00:19;;;;;;;6.65;1.95;;;;;;;;;;516082;28;909;-79
2022/02/06 03:00:48;;;;;;;7.88;1.80;;;;;;;;;;515867;28;887;-80
2022/02/06 03:01:11;;;;;;;7.15;1.88;;;;;;;;;;513955;28;1265;-79
2022/02/06 03:01:53;;;;;;;7.07;1.85;;;;;;;;;;514327;28;856;-80
2022/02/06 03:02:09;;;;;;;7.03;1.70;;;;;;;;;;512254;29;2175;-80
2022/02/06 03:02:24;;;;;;;8.37;1.80;;;;;;;;;;512318;29;944;-80
2022/02/06 03:02:39;;;;;;;6.90;1.80;;;;;;;;;;512083;29;841;-80
2022/02/06 03:03:06;;;;;;;7.32;2.03;;;;;;;;;;510691;29;1516;-80
2022/02/06 03:03:27;;;;;;;7.50;2.10;;;;;;;;;;513066;28;1419;-80
2022/02/06 03:03:42;;;;;;;7.95;2.00;;;;;;;;;;511320;29;1336;-81
2022/02/06 03:03:57;;;;;;;8.10;2.03;;;;;;;;;;510429;29;1412;-80
2022/02/06 03:04:13;;;;;;;7.83;1.97;;;;;;;;;;512253;29;770;-81
2022/02/06 03:04:28;;;;;;;7.87;1.90;;;;;;;;;;510140;29;1277;-80
2022/02/06 03:04:49;;;;;;;6.37;1.83;;;;;;;;;;508148;29;1321;-80
2022/02/06 03:05:05;;;;;;;5.00;1.67;;;;;;;;;;509898;29;905;-80
2022/02/06 03:05:20;;;;;;;5.95;1.90;;;;;;;;;;508274;29;1274;-80
2022/02/06 03:05:37;;;;;;;6.90;1.80;;;;;;;;;;508223;29;1271;-80
2022/02/06 03:05:54;;;;;;;6.22;1.50;;;;;;;;;;509095;29;896;-80
2022/02/06 03:06:09;;;;;;;6.32;1.65;;;;;;;;;;510159;29;1041;-80
2022/02/06 03:06:25;;;;;;;7.13;1.93;;;;;;;;;;511741;29;809;-80
2022/02/06 03:06:40;;;;;;;6.90;1.90;;;;;;;;;;511593;29;1139;-80
2022/02/06 03:06:55;;;;;;;5.80;1.52;;;;;;;;;;511912;29;879;-80
2022/02/06 03:07:11;;;;;;;6.53;1.60;;;;;;;;;;513068;28;931;-81
2022/02/06 03:07:26;;;;;;;7.53;1.83;;;;;;;;;;512667;28;1131;-80
2022/02/06 03:07:41;;;;;;;7.55;1.90;;;;;;;;;;514239;28;800;-80
2022/02/06 03:08:02;;;;;;;8.03;1.80;;;;;;;;;;513890;28;1236;-80
2022/02/06 03:08:19;;;;;;;7.57;1.80;;;;;;;;;;514050;28;782;-80
2022/02/06 03:08:37;;;;;;;6.93;2.03;;;;;;;;;;511890;29;853;-80
2022/02/06 03:08:54;;;;;;;6.40;1.98;;;;;;;;;;509924;29;1249;-80
2022/02/06 03:09:09;;;;;;;5.70;1.75;;;;;;;;;;509851;29;1245;-79
2022/02/06 03:09:25;;;;;;;7.13;1.83;;;;;;;;;;511702;29;1903;-80
2022/02/06 03:09:43;;;;;;;9.02;1.90;;;;;;;;;;512204;29;1294;-79
2022/02/06 03:09:59;;;;;;;8.43;2.00;;;;;;;;;;514007;28;825;-80
2022/02/06 03:10:15;;;;;;;7.13;1.90;;;;;;;;;;514162;28;821;-80
2022/02/06 03:10:34;;;;;;;7.78;1.85;;;;;;;;;;514106;28;1257;-80
2022/02/06 03:10:51;;;;;;;6.50;1.88;;;;;;;;;;514171;28;825;-80
2022/02/06 03:11:09;;;;;;;6.45;1.98;;;;;;;;;;513702;28;789;-79
2022/02/06 03:11:24;;;;;;;7.40;2.00;;;;;;;;;;512040;29;1372;-80
2022/02/06 03:11:40;;;;;;;7.17;2.00;;;;;;;;;;511730;29;1157;-81
2022/02/06 03:11:55;;;;;;;6.57;2.00;;;;;;;;;;512076;29;749;-80
2022/02/06 03:12:13;;;;;;;5.80;1.90;;;;;;;;;;512099;29;1213;-80
2022/02/06 03:12:31;;;;;;;7.40;1.90;;;;;;;;;;511692;29;1344;-80
2022/02/06 03:12:50;;;;;;;8.52;1.95;;;;;;;;;;512068;29;817;-80
2022/02/06 03:13:09;;;;;;;6.10;1.80;;;;;;;;;;509120;29;1412;-80
2022/02/06 03:13:35;;;;;;;5.75;1.88;;;;;;;;;;511454;29;1384;-80
2022/02/06 03:14:17;;;;;;;8.73;1.93;;;;;;;;;;512123;29;579;-80
2022/02/06 03:14:44;;;;;;;7.78;2.05;;;;;;;;;;511843;28;1481;-80